Time,TemperatureF,DewpointF,PressureIn,WindDirection,WindDirectionDegrees,WindSpeedMPH,WindSpeedGustMPH,Humidity,HourlyPrecipIn,Conditions,Clouds,dailyrainin,SoftwareType,DateUTC
2013-05-29 00:04:00,53.2,49.1,29.94,WNW,288,0.0,0.0,86,0.00,,---,0.00,VWS V14.01,2013-05-29 07:04:00,
2013-05-29 00:09:00,53.1,49.7,29.94,WNW,288,0.0,0.0,88,0.00,,---,0.00,VWS V14.01,2013-05-29 07:09:00,
2013-05-29 00:14:00,52.9,49.1,29.94,WNW,288,0.0,0.0,87,0.00,,---,0.00,VWS V14.01,2013-05-29 07:14:00,
2013-05-29 00:19:00,52.8,49.3,29.95,WNW,288,0.0,0.0,88,0.00,,---,0.00,VWS V14.01,2013-05-29 07:19:00,
2013-05-29 00:24:00,52.6,49.2,29.95,WNW,288,0.0,0.0,88,0.00,,---,0.00,VWS V14.01,2013-05-29 07:24:00,
2013-05-29 00:29:00,52.6,49.5,29.95,SSW,213,0.0,0.0,89,0.00,,---,0.00,VWS V14.01,2013-05-29 07:29:00,
2013-05-29 00:34:00,52.5,49.4,29.94,SSW,213,0.0,0.0,89,0.00,,---,0.00,VWS V14.01,2013-05-29 07:34:00,
2013-05-29 00:39:00,52.6,49.5,29.94,SSW,213,0.0,0.0,89,0.00,,---,0.00,VWS V14.01,2013-05-29 07:39:00,
2013-05-29 00:44:00,52.8,50.0,29.94,SSW,196,0.0,4.0,90,0.00,,---,0.00,VWS V14.01,2013-05-29 07:44:00,
2013-05-29 00:49:00,52.9,50.0,29.93,SSE,168,0.0,5.0,90,0.00,,---,0.00,VWS V14.01,2013-05-29 07:49:00,
2013-05-29 00:54:00,52.9,50.0,29.93,East,84,0.0,5.0,90,0.00,,---,0.00,VWS V14.01,2013-05-29 07:54:00,
2013-05-29 00:59:00,52.9,50.0,29.93,East,84,0.0,5.0,90,0.00,,---,0.00,VWS V14.01,2013-05-29 07:59:00,
2013-05-29 01:04:00,52.8,50.0,29.93,East,84,0.0,0.0,90,0.00,,---,0.00,VWS V14.01,2013-05-29 08:04:00,
2013-05-29 01:09:00,52.8,50.0,29.93,ENE,77,0.0,0.0,90,0.00,,---,0.00,VWS V14.01,2013-05-29 08:09:00,
2013-05-29 01:15:00,52.8,50.0,29.93,NE,55,0.0,0.0,90,0.00,,---,0.00,VWS V14.01,2013-05-29 08:15:00,
2013-05-29 01:20:00,52.6,49.8,29.93,ENE,71,3.0,4.0,90,0.00,,---,0.00,VWS V14.01,2013-05-29 08:20:00,
2013-05-29 01:25:00,52.8,50.0,29.93,NE,55,0.0,4.0,90,0.00,,---,0.00,VWS V14.01,2013-05-29 08:25:00,
2013-05-29 01:30:00,52.8,50.0,29.93,NE,55,0.0,4.0,90,0.00,,---,0.00,VWS V14.01,2013-05-29 08:30:00,
2013-05-29 01:35:00,52.8,50.0,29.94,NE,55,0.0,0.0,90,0.00,,---,0.00,VWS V14.01,2013-05-29 08:35:00,
2013-05-29 01:40:00,52.8,50.0,29.94,NE,55,0.0,0.0,90,0.00,,---,0.00,VWS V14.01,2013-05-29 08:40:00,
2013-05-29 01:45:00,52.5,49.7,29.94,NE,55,0.0,0.0,90,0.00,,---,0.00,VWS V14.01,2013-05-29 08:45:00,
2013-05-29 01:50:00,52.2,49.4,29.92,NE,55,0.0,0.0,90,0.00,,---,0.00,VWS V14.01,2013-05-29 08:50:00,
2013-05-29 01:55:00,52.0,49.5,29.92,NNE,29,0.0,0.0,91,0.00,,---,0.00,VWS V14.01,2013-05-29 08:55:00,
2013-05-29 02:00:00,52.3,49.8,29.92,NNE,17,0.0,1.0,91,0.00,,---,0.00,VWS V14.01,2013-05-29 09:00:00,
2013-05-29 02:05:00,52.5,50.0,29.92,NNE,17,0.0,0.0,91,0.00,,---,0.00,VWS V14.01,2013-05-29 09:05:00,
2013-05-29 02:10:00,52.3,49.8,29.92,NNE,17,0.0,0.0,91,0.00,,---,0.00,VWS V14.01,2013-05-29 09:10:00,
2013-05-29 02:15:00,52.2,49.7,29.92,NNE,17,0.0,0.0,91,0.00,,---,0.00,VWS V14.01,2013-05-29 09:15:00,
2013-05-29 02:20:00,52.0,49.5,29.92,NNE,17,0.0,0.0,91,0.00,,---,0.00,VWS V14.01,2013-05-29 09:20:00,
2013-05-29 02:25:00,51.7,49.2,29.92,NNE,17,0.0,0.0,91,0.00,,---,0.00,VWS V14.01,2013-05-29 09:25:00,
2013-05-29 02:30:00,51.6,49.1,29.92,NNE,17,0.0,0.0,91,0.00,,---,0.00,VWS V14.01,2013-05-29 09:30:00,
2013-05-29 02:35:00,51.6,49.1,29.94,NNE,17,0.0,0.0,91,0.00,,---,0.00,VWS V14.01,2013-05-29 09:35:00,
2013-05-29 02:40:00,51.7,49.5,29.94,NNE,17,0.0,0.0,92,0.00,,---,0.00,VWS V14.01,2013-05-29 09:40:00,
2013-05-29 02:45:00,51.9,49.7,29.94,NNE,17,0.0,0.0,92,0.00,,---,0.00,VWS V14.01,2013-05-29 09:45:00,
2013-05-29 02:50:00,52.0,49.8,29.93,NNE,17,0.0,0.0,92,0.00,,---,0.00,VWS V14.01,2013-05-29 09:50:00,
2013-05-29 02:56:00,52.2,50.0,29.93,NNE,17,0.0,0.0,92,0.00,,---,0.00,VWS V14.01,2013-05-29 09:56:00,
2013-05-29 03:01:00,52.2,50.0,29.93,NNE,17,0.0,0.0,92,0.00,,---,0.00,VWS V14.01,2013-05-29 10:01:00,
2013-05-29 03:06:00,52.5,50.2,29.92,NNE,17,0.0,0.0,92,0.00,,---,0.00,VWS V14.01,2013-05-29 10:06:00,
2013-05-29 03:11:00,52.6,50.3,29.92,NNE,17,0.0,0.0,92,0.00,,---,0.00,VWS V14.01,2013-05-29 10:11:00,
2013-05-29 03:16:00,52.8,50.5,29.92,NNE,17,0.0,0.0,92,0.00,,---,0.00,VWS V14.01,2013-05-29 10:16:00,
2013-05-29 03:21:00,52.9,50.6,29.92,NNE,17,0.0,0.0,92,0.00,,---,0.00,VWS V14.01,2013-05-29 10:21:00,
2013-05-29 03:26:00,53.1,50.8,29.92,NNE,17,0.0,0.0,92,0.00,,---,0.00,VWS V14.01,2013-05-29 10:26:00,
2013-05-29 03:31:00,53.2,50.9,29.92,NNE,17,0.0,0.0,92,0.00,,---,0.00,VWS V14.01,2013-05-29 10:31:00,
2013-05-29 03:36:00,53.2,50.9,29.92,NNE,17,0.0,0.0,92,0.00,,---,0.00,VWS V14.01,2013-05-29 10:36:00,
2013-05-29 03:41:00,53.3,51.0,29.92,NNE,17,0.0,0.0,92,0.00,,---,0.00,VWS V14.01,2013-05-29 10:41:00,
2013-05-29 03:46:00,53.3,51.0,29.92,NNE,17,0.0,0.0,92,0.00,,---,0.00,VWS V14.01,2013-05-29 10:46:00,
2013-05-29 03:51:00,53.2,50.9,29.91,NNE,17,0.0,0.0,92,0.00,,---,0.00,VWS V14.01,2013-05-29 10:51:00,
2013-05-29 03:56:00,53.2,50.9,29.91,NNE,17,0.0,0.0,92,0.00,,---,0.00,VWS V14.01,2013-05-29 10:56:00,
2013-05-29 04:01:00,53.2,50.7,29.91,NNE,17,0.0,0.0,91,0.00,,---,0.00,VWS V14.01,2013-05-29 11:01:00,
2013-05-29 04:06:00,53.1,50.5,29.91,NNE,17,0.0,0.0,91,0.00,,---,0.00,VWS V14.01,2013-05-29 11:06:00,
2013-05-29 04:11:00,52.9,50.3,29.91,NNE,17,0.0,0.0,91,0.00,,---,0.00,VWS V14.01,2013-05-29 11:11:00,
2013-05-29 04:16:00,52.6,50.0,29.91,NNE,17,0.0,0.0,91,0.00,,---,0.00,VWS V14.01,2013-05-29 11:16:00,
2013-05-29 04:21:00,52.5,50.2,29.92,NNE,17,0.0,0.0,92,0.00,,---,0.00,VWS V14.01,2013-05-29 11:21:00,
2013-05-29 04:27:00,52.3,50.0,29.92,NNE,17,0.0,0.0,92,0.00,,---,0.00,VWS V14.01,2013-05-29 11:27:00,
2013-05-29 04:32:00,52.3,50.0,29.92,NNE,17,0.0,0.0,92,0.00,,---,0.00,VWS V14.01,2013-05-29 11:32:00,
2013-05-29 04:37:00,52.3,50.0,29.93,NNE,17,0.0,0.0,92,0.00,,---,0.00,VWS V14.01,2013-05-29 11:37:00,
2013-05-29 04:42:00,52.3,50.0,29.93,NNE,17,0.0,0.0,92,0.00,,---,0.00,VWS V14.01,2013-05-29 11:42:00,
2013-05-29 04:47:00,52.5,50.2,29.93,NNE,17,0.0,0.0,92,0.00,,---,0.00,VWS V14.01,2013-05-29 11:47:00,
2013-05-29 04:52:00,52.8,50.5,29.94,NNE,17,0.0,0.0,92,0.00,,---,0.00,VWS V14.01,2013-05-29 11:52:00,
2013-05-29 04:57:00,52.9,50.6,29.94,NNE,17,0.0,0.0,92,0.00,,---,0.00,VWS V14.01,2013-05-29 11:57:00,
2013-05-29 05:02:00,53.1,51.0,29.94,NNE,17,0.0,-999.0,92,-99.99,,,0.00,weatherlink.com 1.10,2013-05-29 12:02:00,
2013-05-29 05:07:00,53.1,50.8,29.92,NNE,17,0.0,0.0,92,0.00,,---,0.00,VWS V14.01,2013-05-29 12:07:00,
2013-05-29 05:12:00,53.1,50.8,29.92,NNE,17,0.0,0.0,92,0.00,,---,0.00,VWS V14.01,2013-05-29 12:12:00,
2013-05-29 05:17:00,53.2,50.9,29.92,NNE,17,0.0,0.0,92,0.00,,---,0.00,VWS V14.01,2013-05-29 12:17:00,
2013-05-29 05:22:00,53.2,50.9,29.92,NNE,17,0.0,0.0,92,0.00,,---,0.00,VWS V14.01,2013-05-29 12:22:00,
2013-05-29 05:27:00,53.3,51.0,29.92,NNE,19,0.0,0.0,92,0.00,,---,0.00,VWS V14.01,2013-05-29 12:27:00,
2013-05-29 05:32:00,53.3,51.0,29.92,NNE,28,0.0,0.0,92,0.00,,---,0.00,VWS V14.01,2013-05-29 12:32:00,
2013-05-29 05:37:00,53.3,50.7,29.92,NNE,28,0.0,0.0,91,0.00,,---,0.00,VWS V14.01,2013-05-29 12:37:00,
2013-05-29 05:42:00,53.3,50.7,29.92,NNE,28,0.0,0.0,91,0.00,,---,0.00,VWS V14.01,2013-05-29 12:42:00,
2013-05-29 05:48:00,53.3,50.7,29.92,NNE,28,0.0,0.0,91,0.00,,---,0.00,VWS V14.01,2013-05-29 12:48:00,
2013-05-29 05:52:00,53.3,50.7,29.91,NNE,28,0.0,0.0,91,0.00,,---,0.00,VWS V14.01,2013-05-29 12:52:00,
2013-05-29 05:57:00,53.3,50.5,29.91,NNE,28,0.0,0.0,90,0.00,,---,0.00,VWS V14.01,2013-05-29 12:57:00,
2013-05-29 06:03:00,53.5,50.6,29.91,NNE,28,0.0,0.0,90,0.00,,---,0.00,VWS V14.01,2013-05-29 13:03:00,
2013-05-29 06:08:00,53.6,50.7,29.92,NNE,28,0.0,0.0,90,0.00,,---,0.00,VWS V14.01,2013-05-29 13:08:00,
2013-05-29 06:13:00,53.8,50.9,29.92,NNE,28,0.0,0.0,90,0.00,,---,0.00,VWS V14.01,2013-05-29 13:13:00,
2013-05-29 06:18:00,53.9,50.7,29.92,NNE,28,0.0,0.0,89,0.00,,---,0.00,VWS V14.01,2013-05-29 13:18:00,
2013-05-29 06:23:00,53.9,50.7,29.92,NNE,28,0.0,0.0,89,0.00,,---,0.00,VWS V14.01,2013-05-29 13:23:00,
2013-05-29 06:28:00,54.1,50.9,29.92,NNE,28,0.0,0.0,89,0.00,,---,0.00,VWS V14.01,2013-05-29 13:28:00,
2013-05-29 06:33:00,54.2,51.0,29.93,NNE,28,0.0,0.0,89,0.00,,---,0.00,VWS V14.01,2013-05-29 13:33:00,
2013-05-29 06:38:00,54.4,51.2,29.93,NNE,28,0.0,0.0,89,0.00,,---,0.00,VWS V14.01,2013-05-29 13:38:00,
2013-05-29 06:43:00,54.5,51.3,29.93,NNE,28,0.0,0.0,89,0.00,,---,0.00,VWS V14.01,2013-05-29 13:43:00,
2013-05-29 06:48:00,54.7,51.2,29.93,NNE,28,0.0,0.0,88,0.00,,---,0.00,VWS V14.01,2013-05-29 13:48:00,
2013-05-29 06:53:00,54.7,51.2,29.93,NNE,28,0.0,0.0,88,0.00,,---,0.00,VWS V14.01,2013-05-29 13:53:00,
2013-05-29 06:58:00,54.8,51.0,29.93,NNE,28,0.0,0.0,87,0.00,,---,0.00,VWS V14.01,2013-05-29 13:58:00,
2013-05-29 07:03:00,55.0,51.2,29.93,NNE,28,0.0,0.0,87,0.00,,---,0.00,VWS V14.01,2013-05-29 14:03:00,
2013-05-29 07:08:00,55.1,51.3,29.93,ENE,74,0.0,0.0,87,0.00,,---,0.00,VWS V14.01,2013-05-29 14:08:00,
2013-05-29 07:13:00,55.4,51.3,29.93,ENE,74,0.0,0.0,86,0.00,,---,0.00,VWS V14.01,2013-05-29 14:13:00,
2013-05-29 07:18:00,55.9,51.8,29.92,ENE,74,0.0,0.0,86,0.00,,---,0.00,VWS V14.01,2013-05-29 14:18:00,
2013-05-29 07:23:00,56.3,51.9,29.92,ENE,72,0.0,0.0,85,0.00,,---,0.00,VWS V14.01,2013-05-29 14:23:00,
2013-05-29 07:28:00,56.6,51.8,29.92,ENE,72,0.0,0.0,84,0.00,,---,0.00,VWS V14.01,2013-05-29 14:28:00,
2013-05-29 07:33:00,56.9,51.8,29.93,ENE,72,0.0,0.0,83,0.00,,---,0.00,VWS V14.01,2013-05-29 14:33:00,
2013-05-29 07:39:00,57.0,51.9,29.93,ENE,66,0.0,0.0,83,0.00,,---,0.00,VWS V14.01,2013-05-29 14:39:00,
2013-05-29 07:44:00,57.3,51.9,29.93,ENE,66,0.0,0.0,82,0.00,,---,0.00,VWS V14.01,2013-05-29 14:44:00,
2013-05-29 07:49:00,57.5,52.1,29.93,ENE,66,0.0,0.0,82,0.00,,---,0.00,VWS V14.01,2013-05-29 14:49:00,
2013-05-29 07:54:00,57.5,51.7,29.93,ENE,66,0.0,0.0,81,0.00,,---,0.00,VWS V14.01,2013-05-29 14:54:00,
2013-05-29 07:59:00,57.6,51.5,29.93,ENE,66,0.0,0.0,80,0.00,,---,0.00,VWS V14.01,2013-05-29 14:59:00,
2013-05-29 08:04:00,57.8,51.7,29.93,ENE,67,0.0,0.0,80,0.00,,---,0.00,VWS V14.01,2013-05-29 15:04:00,
2013-05-29 08:09:00,58.1,52.0,29.93,ENE,60,0.0,0.0,80,0.00,,---,0.00,VWS V14.01,2013-05-29 15:09:00,
2013-05-29 08:14:00,58.4,52.3,29.93,ENE,60,0.0,0.0,80,0.00,,---,0.00,VWS V14.01,2013-05-29 15:14:00,
2013-05-29 08:19:00,58.6,52.1,29.92,ENE,60,0.0,0.0,79,0.00,,---,0.00,VWS V14.01,2013-05-29 15:19:00,
2013-05-29 08:24:00,58.9,52.4,29.92,ENE,60,0.0,0.0,79,0.00,,---,0.00,VWS V14.01,2013-05-29 15:24:00,
2013-05-29 08:29:00,59.2,52.0,29.92,ENE,60,0.0,0.0,77,0.00,,---,0.00,VWS V14.01,2013-05-29 15:29:00,
2013-05-29 08:34:00,59.8,52.2,29.93,NE,53,0.0,0.0,76,0.00,,---,0.00,VWS V14.01,2013-05-29 15:34:00,
2013-05-29 08:39:00,60.5,52.5,29.93,NE,53,0.0,0.0,75,0.00,,---,0.00,VWS V14.01,2013-05-29 15:39:00,
2013-05-29 08:44:00,61.2,52.9,29.93,WSW,258,0.0,3.0,74,0.00,,---,0.00,VWS V14.01,2013-05-29 15:44:00,
2013-05-29 08:49:00,61.6,52.9,29.94,WSW,239,0.0,3.0,73,0.00,,---,0.00,VWS V14.01,2013-05-29 15:49:00,
2013-05-29 08:54:00,62.1,53.0,29.94,WSW,242,0.0,3.0,72,0.00,,---,0.00,VWS V14.01,2013-05-29 15:54:00,
2013-05-29 08:59:00,62.6,53.1,29.94,NW,306,0.0,3.0,71,0.00,,---,0.00,VWS V14.01,2013-05-29 15:59:00,
2013-05-29 09:04:00,63.4,53.8,29.93,NW,306,0.0,0.0,71,0.00,,---,0.00,VWS V14.01,2013-05-29 16:04:00,
2013-05-29 09:09:00,63.5,52.8,29.93,NW,306,0.0,0.0,68,0.00,,---,0.00,VWS V14.01,2013-05-29 16:09:00,
2013-05-29 09:14:00,63.7,53.0,29.93,NNW,336,0.0,0.0,68,0.00,,---,0.00,VWS V14.01,2013-05-29 16:14:00,
2013-05-29 09:19:00,64.3,53.1,29.94,WNW,300,0.0,0.0,67,0.00,,---,0.00,VWS V14.01,2013-05-29 16:19:00,
2013-05-29 09:24:00,65.0,52.5,29.94,NW,305,0.0,0.0,64,0.00,,---,0.00,VWS V14.01,2013-05-29 16:24:00,
2013-05-29 09:29:00,65.8,52.9,29.94,NW,305,0.0,0.0,63,0.00,,---,0.00,VWS V14.01,2013-05-29 16:29:00,
2013-05-29 09:34:00,66.4,53.0,29.93,NNW,335,0.0,1.0,62,0.00,,---,0.00,VWS V14.01,2013-05-29 16:34:00,
2013-05-29 09:39:00,67.1,52.8,29.93,NNW,335,0.0,3.0,60,0.00,,---,0.00,VWS V14.01,2013-05-29 16:39:00,
2013-05-29 09:44:00,66.9,52.1,29.93,WNW,297,0.0,5.0,59,0.00,,---,0.00,VWS V14.01,2013-05-29 16:44:00,
2013-05-29 09:49:00,67.3,53.0,29.93,NNW,346,3.0,5.0,60,0.00,,---,0.00,VWS V14.01,2013-05-29 16:49:00,
2013-05-29 09:54:00,67.4,52.6,29.93,NNW,333,0.0,5.0,59,0.00,,---,0.00,VWS V14.01,2013-05-29 16:54:00,
2013-05-29 09:59:00,67.9,52.6,29.93,NW,315,0.0,5.0,58,0.00,,---,0.00,VWS V14.01,2013-05-29 16:59:00,
2013-05-29 10:04:00,68.4,53.1,29.93,NW,314,0.0,1.0,58,0.00,,---,0.00,VWS V14.01,2013-05-29 17:04:00,
2013-05-29 10:09:00,69.3,53.4,29.93,WNW,282,0.0,4.0,57,0.00,,---,0.00,VWS V14.01,2013-05-29 17:09:00,
2013-05-29 10:14:00,69.8,53.9,29.93,West,259,0.0,4.0,57,0.00,,---,0.00,VWS V14.01,2013-05-29 17:14:00,
2013-05-29 10:19:00,70.1,54.2,29.92,West,275,0.0,4.0,57,0.00,,---,0.00,VWS V14.01,2013-05-29 17:19:00,
2013-05-29 10:24:00,70.4,54.0,29.92,North,5,0.0,4.0,56,0.00,,---,0.00,VWS V14.01,2013-05-29 17:24:00,
2013-05-29 10:29:00,70.6,54.2,29.92,NNW,344,4.0,5.0,56,0.00,,---,0.00,VWS V14.01,2013-05-29 17:29:00,
2013-05-29 10:34:00,71.5,54.5,29.92,WNW,300,2.0,8.0,55,0.00,,---,0.00,VWS V14.01,2013-05-29 17:34:00,
2013-05-29 10:39:00,72.1,54.6,29.92,North,355,4.0,8.0,54,0.00,,---,0.00,VWS V14.01,2013-05-29 17:39:00,
2013-05-29 10:44:00,71.5,54.5,29.92,West,281,0.0,8.0,55,0.00,,---,0.00,VWS V14.01,2013-05-29 17:44:00,
2013-05-29 10:49:00,72.3,54.2,29.92,NNW,334,0.0,8.0,53,0.00,,---,0.00,VWS V14.01,2013-05-29 17:49:00,
2013-05-29 10:54:00,72.8,54.2,29.92,NW,319,0.0,8.0,52,0.00,,---,0.00,VWS V14.01,2013-05-29 17:54:00,
2013-05-29 11:00:00,73.0,54.4,29.92,NW,324,2.0,8.0,52,0.00,,---,0.00,VWS V14.01,2013-05-29 18:00:00,
2013-05-29 11:05:00,73.0,54.9,29.92,WNW,295,0.0,3.0,53,0.00,,---,0.00,VWS V14.01,2013-05-29 18:05:00,
2013-05-29 11:10:00,73.0,54.4,29.92,NW,311,0.0,5.0,52,0.00,,---,0.00,VWS V14.01,2013-05-29 18:10:00,
2013-05-29 11:15:00,72.1,54.6,29.92,NW,307,0.0,8.0,54,0.00,,---,0.00,VWS V14.01,2013-05-29 18:15:00,
2013-05-29 11:20:00,72.5,54.9,29.91,WSW,246,0.0,8.0,54,0.00,,---,0.00,VWS V14.01,2013-05-29 18:20:00,
2013-05-29 11:25:00,72.8,54.7,29.91,West,271,0.0,9.0,53,0.00,,---,0.00,VWS V14.01,2013-05-29 18:25:00,
2013-05-29 11:30:00,73.0,53.8,29.91,West,281,2.0,9.0,51,0.00,,---,0.00,VWS V14.01,2013-05-29 18:30:00,
2013-05-29 11:35:00,73.0,53.8,29.92,West,279,0.0,6.0,51,0.00,,---,0.00,VWS V14.01,2013-05-29 18:35:00,
2013-05-29 11:40:00,73.3,54.1,29.92,West,267,0.0,8.0,51,0.00,,---,0.00,VWS V14.01,2013-05-29 18:40:00,
2013-05-29 11:45:00,73.5,53.7,29.92,WNW,287,3.0,8.0,50,0.00,,---,0.00,VWS V14.01,2013-05-29 18:45:00,
2013-05-29 11:50:00,72.8,53.6,29.92,WSW,256,6.0,11.0,51,0.00,,---,0.00,VWS V14.01,2013-05-29 18:50:00,
2013-05-29 11:55:00,71.8,53.8,29.92,WSW,240,3.0,11.0,53,0.00,,---,0.00,VWS V14.01,2013-05-29 18:55:00,
2013-05-29 12:00:00,71.5,54.0,29.92,WSW,240,2.0,11.0,54,0.00,,---,0.00,VWS V14.01,2013-05-29 19:00:00,
2013-05-29 12:05:00,71.6,54.1,29.92,SW,234,2.0,9.0,54,0.00,,---,0.00,VWS V14.01,2013-05-29 19:05:00,
2013-05-29 12:10:00,71.3,53.8,29.92,West,270,0.0,9.0,54,0.00,,---,0.00,VWS V14.01,2013-05-29 19:10:00,
2013-05-29 12:15:00,71.5,54.0,29.92,West,264,5.0,9.0,54,0.00,,---,0.00,VWS V14.01,2013-05-29 19:15:00,
2013-05-29 12:20:00,71.5,54.5,29.92,WSW,245,5.0,9.0,55,0.00,,---,0.00,VWS V14.01,2013-05-29 19:20:00,
2013-05-29 12:25:00,71.6,55.6,29.92,West,273,8.0,9.0,57,0.00,,---,0.00,VWS V14.01,2013-05-29 19:25:00,
2013-05-29 12:30:00,72.0,55.5,29.92,WSW,257,9.0,9.0,56,0.00,,---,0.00,VWS V14.01,2013-05-29 19:30:00,
2013-05-29 12:36:00,72.0,55.5,29.91,West,259,7.0,7.0,56,0.00,,---,0.00,VWS V14.01,2013-05-29 19:36:00,
2013-05-29 12:41:00,72.0,55.5,29.91,SW,219,0.0,9.0,56,0.00,,---,0.00,VWS V14.01,2013-05-29 19:41:00,
2013-05-29 12:46:00,71.8,55.8,29.91,West,259,0.0,9.0,57,0.00,,---,0.00,VWS V14.01,2013-05-29 19:46:00,
2013-05-29 12:51:00,70.4,55.9,29.91,SW,232,0.0,9.0,60,0.00,,---,0.00,VWS V14.01,2013-05-29 19:51:00,
2013-05-29 12:56:00,69.6,56.5,29.91,SSW,210,6.0,10.0,63,0.00,,---,0.00,VWS V14.01,2013-05-29 19:56:00,
2013-05-29 13:01:00,68.6,55.5,29.91,SSW,201,3.0,12.0,63,0.00,,---,0.00,VWS V14.01,2013-05-29 20:01:00,
2013-05-29 13:06:00,68.8,55.7,29.91,South,188,7.0,9.0,63,0.00,,---,0.00,VWS V14.01,2013-05-29 20:06:00,
2013-05-29 13:11:00,68.8,56.1,29.91,WSW,251,4.0,9.0,64,0.00,,---,0.00,VWS V14.01,2013-05-29 20:11:00,
2013-05-29 13:16:00,69.6,56.0,29.91,WSW,242,5.0,11.0,62,0.00,,---,0.00,VWS V14.01,2013-05-29 20:16:00,
2013-05-29 13:21:00,69.8,56.7,29.91,WNW,300,2.0,11.0,63,0.00,,---,0.00,VWS V14.01,2013-05-29 20:21:00,
2013-05-29 13:26:00,69.6,56.9,29.91,West,261,7.0,11.0,64,0.00,,---,0.00,VWS V14.01,2013-05-29 20:26:00,
2013-05-29 13:31:00,69.8,56.2,29.91,WSW,242,6.0,11.0,62,0.00,,---,0.00,VWS V14.01,2013-05-29 20:31:00,
2013-05-29 13:36:00,69.9,56.8,29.91,WNW,290,3.0,10.0,63,0.00,,---,0.00,VWS V14.01,2013-05-29 20:36:00,
2013-05-29 13:41:00,70.9,56.8,29.91,West,277,0.0,11.0,61,0.00,,---,0.00,VWS V14.01,2013-05-29 20:41:00,
2013-05-29 13:46:00,71.6,56.5,29.91,WSW,253,7.0,11.0,59,0.00,,---,0.00,VWS V14.01,2013-05-29 20:46:00,
2013-05-29 13:51:00,71.6,57.0,29.90,West,267,2.0,11.0,60,0.00,,---,0.00,VWS V14.01,2013-05-29 20:51:00,
2013-05-29 13:56:00,71.8,56.7,29.90,North,5,0.0,11.0,59,0.00,,---,0.00,VWS V14.01,2013-05-29 20:56:00,
2013-05-29 14:01:00,72.3,57.2,29.90,WNW,284,3.0,11.0,59,0.00,,---,0.00,VWS V14.01,2013-05-29 21:01:00,
2013-05-29 14:06:00,72.7,57.6,29.90,WNW,291,0.0,8.0,59,0.00,,---,0.00,VWS V14.01,2013-05-29 21:06:00,
2013-05-29 14:11:00,72.8,57.2,29.90,West,270,4.0,8.0,58,0.00,,---,0.00,VWS V14.01,2013-05-29 21:11:00,
2013-05-29 14:16:00,71.8,57.2,29.90,SSW,198,0.0,11.0,60,0.00,,---,0.00,VWS V14.01,2013-05-29 21:16:00,
2013-05-29 14:21:00,69.9,56.8,29.89,SW,225,4.0,12.0,63,0.00,,---,0.00,VWS V14.01,2013-05-29 21:21:00,
2013-05-29 14:26:00,69.4,56.3,29.89,WSW,257,6.0,12.0,63,0.00,,---,0.00,VWS V14.01,2013-05-29 21:26:00,
2013-05-29 14:31:00,70.1,56.0,29.89,WSW,257,6.0,12.0,61,0.00,,---,0.00,VWS V14.01,2013-05-29 21:31:00,
2013-05-29 14:37:00,70.9,56.3,29.89,West,262,0.0,8.0,60,0.00,,---,0.00,VWS V14.01,2013-05-29 21:37:00,
2013-05-29 14:42:00,72.0,56.4,29.89,West,273,2.0,11.0,58,0.00,,---,0.00,VWS V14.01,2013-05-29 21:42:00,
2013-05-29 14:47:00,72.5,56.9,29.89,West,266,2.0,11.0,58,0.00,,---,0.00,VWS V14.01,2013-05-29 21:47:00,
2013-05-29 14:52:00,72.5,56.4,29.89,SW,236,1.0,11.0,57,0.00,,---,0.00,VWS V14.01,2013-05-29 21:52:00,
2013-05-29 14:57:00,72.8,56.2,29.89,WSW,249,4.0,13.0,56,0.00,,---,0.00,VWS V14.01,2013-05-29 21:57:00,
2013-05-29 15:02:00,73.2,56.6,29.89,West,273,4.0,13.0,56,0.00,,---,0.00,VWS V14.01,2013-05-29 22:02:00,
2013-05-29 15:07:00,72.8,55.7,29.88,West,263,7.0,10.0,55,0.00,,---,0.00,VWS V14.01,2013-05-29 22:07:00,
2013-05-29 15:12:00,72.8,55.7,29.88,SW,229,4.0,10.0,55,0.00,,---,0.00,VWS V14.01,2013-05-29 22:12:00,
2013-05-29 15:17:00,71.5,55.5,29.88,SW,217,6.0,10.0,57,0.00,,---,0.00,VWS V14.01,2013-05-29 22:17:00,
2013-05-29 15:22:00,71.6,54.6,29.88,South,181,0.0,10.0,55,0.00,,---,0.00,VWS V14.01,2013-05-29 22:22:00,
2013-05-29 15:27:00,71.8,54.3,29.88,WSW,246,0.0,10.0,54,0.00,,---,0.00,VWS V14.01,2013-05-29 22:27:00,
2013-05-29 15:32:00,72.3,53.2,29.88,SSW,213,6.0,10.0,51,0.00,,---,0.00,VWS V14.01,2013-05-29 22:32:00,
2013-05-29 15:37:00,72.8,53.1,29.88,West,264,7.0,8.0,50,0.00,,---,0.00,VWS V14.01,2013-05-29 22:37:00,
2013-05-29 15:42:00,73.7,54.0,29.88,SE,137,0.0,-999.0,50,-99.99,,,0.00,weatherlink.com 1.10,2013-05-29 22:42:00,
2013-05-29 15:47:00,73.9,54.1,29.88,WNW,290,0.0,9.0,50,0.00,,---,0.00,VWS V14.01,2013-05-29 22:47:00,
2013-05-29 15:53:00,73.7,53.4,29.88,NW,317,0.0,9.0,49,0.00,,---,0.00,VWS V14.01,2013-05-29 22:53:00,
2013-05-29 15:58:00,73.9,53.6,29.88,SW,221,4.0,11.0,49,0.00,,---,0.00,VWS V14.01,2013-05-29 22:58:00,
2013-05-29 16:03:00,74.2,53.3,29.88,NW,310,2.0,11.0,48,0.00,,---,0.00,VWS V14.01,2013-05-29 23:03:00,
2013-05-29 16:08:00,74.2,52.7,29.88,NW,316,0.0,1.0,47,0.00,,---,0.00,VWS V14.01,2013-05-29 23:08:00,
2013-05-29 16:13:00,74.0,51.3,29.88,East,94,0.0,3.0,45,0.00,,---,0.00,VWS V14.01,2013-05-29 23:13:00,
2013-05-29 16:18:00,74.2,51.5,29.87,WSW,253,0.0,6.0,45,0.00,,---,0.00,VWS V14.01,2013-05-29 23:18:00,
2013-05-29 16:23:00,74.6,50.7,29.87,SE,139,8.0,8.0,43,0.00,,---,0.00,VWS V14.01,2013-05-29 23:23:00,
2013-05-29 16:28:00,74.6,50.0,29.87,SW,232,0.0,8.0,42,0.00,,---,0.00,VWS V14.01,2013-05-29 23:28:00,
2013-05-29 16:33:00,74.4,51.1,29.87,WSW,241,0.0,9.0,44,0.00,,---,0.00,VWS V14.01,2013-05-29 23:33:00,
2013-05-29 16:38:00,74.4,50.5,29.87,West,261,1.0,5.0,43,0.00,,---,0.00,VWS V14.01,2013-05-29 23:38:00,
2013-05-29 16:43:00,74.0,49.5,29.87,South,173,2.0,11.0,42,0.00,,---,0.00,VWS V14.01,2013-05-29 23:43:00,
2013-05-29 16:48:00,73.9,50.0,29.87,SW,223,1.0,11.0,43,0.00,,---,0.00,VWS V14.01,2013-05-29 23:48:00,
2013-05-29 16:53:00,73.5,50.3,29.87,SW,236,0.0,11.0,44,0.00,,---,0.00,VWS V14.01,2013-05-29 23:53:00,
2013-05-29 16:58:00,73.3,52.5,29.87,WSW,252,0.0,11.0,48,0.00,,---,0.00,VWS V14.01,2013-05-29 23:58:00,
2013-05-29 17:03:00,73.2,51.8,29.86,South,184,0.0,11.0,47,0.00,,---,0.00,VWS V14.01,2013-05-30 00:03:00,
2013-05-29 17:08:00,73.2,51.8,29.86,SSW,194,0.0,1.0,47,0.00,,---,0.00,VWS V14.01,2013-05-30 00:08:00,
2013-05-29 17:13:00,73.2,50.6,29.86,SE,143,8.0,9.0,45,0.00,,---,0.00,VWS V14.01,2013-05-30 00:13:00,
2013-05-29 17:18:00,72.8,49.6,29.86,SSE,153,1.0,10.0,44,0.00,,---,0.00,VWS V14.01,2013-05-30 00:18:00,
2013-05-29 17:23:00,72.8,50.2,29.86,WSW,238,3.0,10.0,45,0.00,,---,0.00,VWS V14.01,2013-05-30 00:23:00,
2013-05-29 17:28:00,72.8,51.4,29.86,SSW,196,0.0,10.0,47,0.00,,---,0.00,VWS V14.01,2013-05-30 00:28:00,
2013-05-29 17:33:00,72.8,52.0,29.86,SSW,211,0.0,10.0,48,0.00,,---,0.00,VWS V14.01,2013-05-30 00:33:00,
2013-05-29 17:38:00,72.8,52.5,29.86,SW,225,3.0,8.0,49,0.00,,---,0.00,VWS V14.01,2013-05-30 00:38:00,
2013-05-29 17:43:00,72.3,52.1,29.86,SW,219,5.0,10.0,49,0.00,,---,0.00,VWS V14.01,2013-05-30 00:43:00,
2013-05-29 17:49:00,72.0,52.9,29.87,SSW,196,4.0,10.0,51,0.00,,---,0.00,VWS V14.01,2013-05-30 00:49:00,
2013-05-29 17:54:00,71.6,53.6,29.87,SSW,201,0.0,10.0,53,0.00,,---,0.00,VWS V14.01,2013-05-30 00:54:00,
2013-05-29 17:59:00,71.5,53.5,29.87,SW,236,0.0,10.0,53,0.00,,---,0.00,VWS V14.01,2013-05-30 00:59:00,
2013-05-29 18:04:00,71.1,53.6,29.86,WSW,240,6.0,6.0,54,0.00,,---,0.00,VWS V14.01,2013-05-30 01:04:00,
2013-05-29 18:09:00,70.8,53.8,29.86,East,89,0.0,6.0,55,0.00,,---,0.00,VWS V14.01,2013-05-30 01:09:00,
2013-05-29 18:14:00,70.3,53.4,29.86,SSE,147,4.0,6.0,55,0.00,,---,0.00,VWS V14.01,2013-05-30 01:14:00,
2013-05-29 18:19:00,69.8,53.4,29.86,ESE,115,0.0,8.0,56,0.00,,---,0.00,VWS V14.01,2013-05-30 01:19:00,
2013-05-29 18:24:00,69.1,53.2,29.86,SW,219,3.0,8.0,57,0.00,,---,0.00,VWS V14.01,2013-05-30 01:24:00,
2013-05-29 18:29:00,68.4,53.5,29.86,WSW,252,4.0,8.0,59,0.00,,---,0.00,VWS V14.01,2013-05-30 01:29:00,
2013-05-29 18:34:00,67.9,53.1,29.88,NNW,342,2.0,2.0,59,0.00,,---,0.00,VWS V14.01,2013-05-30 01:34:00,
2013-05-29 18:39:00,67.4,52.6,29.88,East,90,0.0,6.0,59,0.00,,---,0.00,VWS V14.01,2013-05-30 01:39:00,
2013-05-29 18:44:00,67.1,52.8,29.88,ESE,113,1.0,6.0,60,0.00,,---,0.00,VWS V14.01,2013-05-30 01:44:00,
2013-05-29 18:49:00,66.6,52.8,29.88,East,84,0.0,6.0,61,0.00,,---,0.00,VWS V14.01,2013-05-30 01:49:00,
2013-05-29 18:54:00,66.3,52.5,29.88,East,92,1.0,6.0,61,0.00,,---,0.00,VWS V14.01,2013-05-30 01:54:00,
2013-05-29 18:59:00,66.0,52.6,29.88,East,98,0.0,6.0,62,0.00,,---,0.00,VWS V14.01,2013-05-30 01:59:00,
2013-05-29 19:04:00,65.8,52.4,29.88,ENE,78,0.0,0.0,62,0.00,,---,0.00,VWS V14.01,2013-05-30 02:04:00,
2013-05-29 19:09:00,65.5,52.2,29.88,East,98,0.0,4.0,62,0.00,,---,0.00,VWS V14.01,2013-05-30 02:09:00,
2013-05-29 19:14:00,65.3,52.0,29.88,ESE,113,0.0,8.0,62,0.00,,---,0.00,VWS V14.01,2013-05-30 02:14:00,
2013-05-29 19:19:00,65.2,51.9,29.88,SE,129,0.0,8.0,62,0.00,,---,0.00,VWS V14.01,2013-05-30 02:19:00,
2013-05-29 19:24:00,65.0,52.1,29.88,South,186,0.0,8.0,63,0.00,,---,0.00,VWS V14.01,2013-05-30 02:24:00,
2013-05-29 19:29:00,64.5,51.6,29.88,South,185,0.0,12.0,63,0.00,,---,0.00,VWS V14.01,2013-05-30 02:29:00,
2013-05-29 19:34:00,64.0,51.6,29.88,East,96,0.0,0.0,64,0.00,,---,0.00,VWS V14.01,2013-05-30 02:34:00,
2013-05-29 19:39:00,63.9,51.5,29.88,SSE,154,7.0,7.0,64,0.00,,---,0.00,VWS V14.01,2013-05-30 02:39:00,
2013-05-29 19:44:00,63.4,51.4,29.88,SSW,210,0.0,10.0,65,0.00,,---,0.00,VWS V14.01,2013-05-30 02:44:00,
2013-05-29 19:49:00,63.2,51.2,29.88,SSE,163,0.0,10.0,65,0.00,,---,0.00,VWS V14.01,2013-05-30 02:49:00,
2013-05-29 19:54:00,62.7,51.2,29.88,SSW,209,0.0,10.0,66,0.00,,---,0.00,VWS V14.01,2013-05-30 02:54:00,
2013-05-29 19:59:00,62.1,51.0,29.88,SW,227,0.0,10.0,67,0.00,,---,0.00,VWS V14.01,2013-05-30 02:59:00,
2013-05-29 20:04:00,61.5,50.8,29.88,South,182,0.0,6.0,68,0.00,,---,0.00,VWS V14.01,2013-05-30 03:04:00,
2013-05-29 20:09:00,60.9,50.3,29.88,SSW,195,0.0,6.0,68,0.00,,---,0.00,VWS V14.01,2013-05-30 03:09:00,
2013-05-29 20:15:00,60.4,50.2,29.88,SSE,153,0.0,6.0,69,0.00,,---,0.00,VWS V14.01,2013-05-30 03:15:00,
2013-05-29 20:19:00,59.9,50.1,29.88,SSE,153,2.0,6.0,70,0.00,,---,0.00,VWS V14.01,2013-05-30 03:19:00,
2013-05-29 20:25:00,59.3,49.9,29.88,South,173,5.0,6.0,71,0.00,,---,0.00,VWS V14.01,2013-05-30 03:25:00,
2013-05-29 20:30:00,58.9,49.9,29.88,SSW,203,5.0,10.0,72,0.00,,---,0.00,VWS V14.01,2013-05-30 03:30:00,
2013-05-29 20:35:00,58.6,50.0,29.89,South,186,5.0,12.0,73,0.00,,---,0.00,VWS V14.01,2013-05-30 03:35:00,
2013-05-29 20:40:00,58.3,50.1,29.89,SE,136,2.0,12.0,74,0.00,,---,0.00,VWS V14.01,2013-05-30 03:40:00,
2013-05-29 20:45:00,58.0,49.8,29.89,SE,132,1.0,12.0,74,0.00,,---,0.00,VWS V14.01,2013-05-30 03:45:00,
2013-05-29 20:50:00,57.6,49.8,29.89,SSW,201,0.0,12.0,75,0.00,,---,0.00,VWS V14.01,2013-05-30 03:50:00,
2013-05-29 20:55:00,57.5,50.0,29.89,South,181,5.0,-999.0,75,-99.99,,,0.00,weatherlink.com 1.10,2013-05-30 03:55:00,
2013-05-29 21:00:00,57.2,49.7,29.89,South,185,7.0,12.0,76,0.00,,---,0.00,VWS V14.01,2013-05-30 04:00:00,
2013-05-29 21:01:00,57.0,49.5,29.89,South,186,3.0,12.0,76,0.00,,---,0.00,VWS V14.01,2013-05-30 04:01:00,
2013-05-29 21:02:00,57.0,49.9,29.89,SSE,166,6.0,12.0,77,0.00,,---,0.00,VWS V14.01,2013-05-30 04:02:00,
2013-05-29 21:07:00,56.7,49.6,29.90,SSW,197,0.0,6.0,77,0.00,,---,0.00,VWS V14.01,2013-05-30 04:07:00,
2013-05-29 21:12:00,56.5,49.4,29.90,SSW,211,5.0,10.0,77,0.00,,---,0.00,VWS V14.01,2013-05-30 04:12:00,
2013-05-29 21:17:00,56.3,49.5,29.90,South,183,3.0,10.0,78,0.00,,---,0.00,VWS V14.01,2013-05-30 04:17:00,
2013-05-29 21:22:00,56.0,49.6,29.91,South,186,4.0,12.0,79,0.00,,---,0.00,VWS V14.01,2013-05-30 04:22:00,
2013-05-29 21:27:00,55.9,49.5,29.91,SSW,209,4.0,12.0,79,0.00,,---,0.00,VWS V14.01,2013-05-30 04:27:00,
2013-05-29 21:32:00,55.7,49.6,29.91,SSW,203,0.0,12.0,80,0.00,,---,0.00,VWS V14.01,2013-05-30 04:32:00,
2013-05-29 21:37:00,55.6,49.5,29.91,South,179,0.0,8.0,80,0.00,,---,0.00,VWS V14.01,2013-05-30 04:37:00,
2013-05-29 21:42:00,55.4,49.3,29.91,SSW,207,5.0,8.0,80,0.00,,---,0.00,VWS V14.01,2013-05-30 04:42:00,
2013-05-29 21:47:00,55.3,49.2,29.91,South,184,0.0,8.0,80,0.00,,---,0.00,VWS V14.01,2013-05-30 04:47:00,
2013-05-29 21:52:00,55.3,49.2,29.92,South,178,2.0,8.0,80,0.00,,---,0.00,VWS V14.01,2013-05-30 04:52:00,
2013-05-29 21:57:00,55.1,49.0,29.92,SSW,198,2.0,8.0,80,0.00,,---,0.00,VWS V14.01,2013-05-30 04:57:00,
2013-05-29 22:02:00,55.1,49.0,29.92,SSW,207,0.0,8.0,80,0.00,,---,0.00,VWS V14.01,2013-05-30 05:02:00,
2013-05-29 22:07:00,55.0,49.0,29.92,SE,136,1.0,6.0,80,0.00,,---,0.00,VWS V14.01,2013-05-30 05:07:00,
2013-05-29 22:12:00,55.0,49.3,29.92,South,175,8.0,8.0,81,0.00,,---,0.00,VWS V14.01,2013-05-30 05:12:00,
2013-05-29 22:17:00,54.8,49.1,29.92,South,170,0.0,8.0,81,0.00,,---,0.00,VWS V14.01,2013-05-30 05:17:00,
2013-05-29 22:22:00,54.7,49.0,29.92,SSE,150,4.0,8.0,81,0.00,,---,0.00,VWS V14.01,2013-05-30 05:22:00,
2013-05-29 22:28:00,54.7,49.0,29.92,SSW,202,0.0,8.0,81,0.00,,---,0.00,VWS V14.01,2013-05-30 05:28:00,
2013-05-29 22:33:00,54.5,48.8,29.92,SW,236,2.0,8.0,81,0.00,,---,0.00,VWS V14.01,2013-05-30 05:33:00,
2013-05-29 22:37:00,54.4,48.7,29.92,South,175,6.0,8.0,81,0.00,,---,0.00,VWS V14.01,2013-05-30 05:37:00,
2013-05-29 22:43:00,54.4,49.0,29.92,SSW,200,2.0,8.0,82,0.00,,---,0.00,VWS V14.01,2013-05-30 05:43:00,
2013-05-29 22:48:00,54.2,48.8,29.92,SSW,210,0.0,8.0,82,0.00,,---,0.00,VWS V14.01,2013-05-30 05:48:00,
2013-05-29 22:53:00,54.2,48.8,29.93,South,176,0.0,8.0,82,0.00,,---,0.00,VWS V14.01,2013-05-30 05:53:00,
2013-05-29 22:58:00,54.1,48.7,29.93,SSW,212,2.0,8.0,82,0.00,,---,0.00,VWS V14.01,2013-05-30 05:58:00,
2013-05-29 23:03:00,53.9,48.5,29.93,South,174,2.0,8.0,82,0.00,,---,0.00,VWS V14.01,2013-05-30 06:03:00,
2013-05-29 23:08:00,53.9,48.5,29.93,SSW,192,0.0,0.0,82,0.00,,---,0.00,VWS V14.01,2013-05-30 06:08:00,
2013-05-29 23:13:00,53.8,48.8,29.93,SSW,213,2.0,6.0,83,0.00,,---,0.00,VWS V14.01,2013-05-30 06:13:00,
2013-05-29 23:18:00,53.6,48.6,29.93,SSW,196,0.0,6.0,83,0.00,,---,0.00,VWS V14.01,2013-05-30 06:18:00,
2013-05-29 23:23:00,53.6,48.6,29.93,South,189,0.0,6.0,83,0.00,,---,0.00,VWS V14.01,2013-05-30 06:23:00,
2013-05-29 23:28:00,53.6,48.6,29.93,SSW,211,0.0,6.0,83,0.00,,---,0.00,VWS V14.01,2013-05-30 06:28:00,
2013-05-29 23:33:00,53.6,48.2,29.93,SW,227,1.0,6.0,82,0.00,,---,0.00,VWS V14.01,2013-05-30 06:33:00,
2013-05-29 23:38:00,53.5,48.2,29.93,SW,236,0.0,7.0,82,0.00,,---,0.00,VWS V14.01,2013-05-30 06:38:00,
2013-05-29 23:43:00,53.5,48.2,29.93,ENE,63,0.0,7.0,82,0.00,,---,0.00,VWS V14.01,2013-05-30 06:43:00,
2013-05-29 23:48:00,53.5,48.2,29.93,South,181,0.0,7.0,82,0.00,,---,0.00,VWS V14.01,2013-05-30 06:48:00,
2013-05-29 23:53:00,53.3,48.0,29.93,NNE,26,0.0,7.0,82,0.00,,---,0.00,VWS V14.01,2013-05-30 06:53:00,
2013-05-29 23:58:00,53.2,48.2,29.93,ENE,68,0.0,7.0,83,0.00,,---,0.00,VWS V14.01,2013-05-30 06:58:00,